Time;durP1;ratioP1;P1;durP2;ratioP2;P2;SDS_P1;SDS_P2;PMS_P1;PMS_P2;Temp;Humidity;BMP_temperature;BMP_pressure;BME280_temperature;BME280_humidity;BME280_pressure;Samples;Min_cycle;Max_cycle;Signal;HPM_P1;HPM_P2
2023/01/23 00:00:21;;;;;;;;;;;-2.00;99.90;;;;;;4924330;29;19930;-70
2023/01/23 00:02:50;;;;;;;;;;;-2.10;99.90;;;;;;4899371;29;19953;-70
2023/01/23 00:05:20;;;;;;;;;;;-2.10;99.90;;;;;;4926081;29;20018;-70
2023/01/23 00:07:52;;;;;;;;;;;-2.10;99.90;;;;;;4930500;29;19934;-71
2023/01/23 00:10:22;;;;;;;;;;;-2.10;99.90;;;;;;4925905;29;19927;-72
2023/01/23 00:12:52;;;;;;;;;;;-2.10;99.90;;;;;;4916062;29;20014;-71
2023/01/23 00:15:26;;;;;;;;;;;-2.10;99.90;;;;;;4914488;29;19933;-71
2023/01/23 00:18:03;;;;;;;;;;;-2.10;99.90;;;;;;4909451;29;19927;-71
2023/01/23 00:20:37;;;;;;;;;;;-2.10;99.90;;;;;;4921236;29;19931;-71
2023/01/23 00:23:05;;;;;;;;;;;-2.10;99.90;;;;;;4907336;29;19938;-71
2023/01/23 00:25:34;;;;;;;;;;;-2.10;99.90;;;;;;4932223;29;19933;-72
2023/01/23 00:28:01;;;;;;;;;;;-2.00;99.90;;;;;;4907945;29;19930;-70
2023/01/23 00:30:33;;;;;;;;;;;-2.00;99.90;;;;;;4926740;29;20018;-71
2023/01/23 00:33:02;;;;;;;;;;;-2.00;99.90;;;;;;4923225;29;19933;-71
2023/01/23 00:35:36;;;;;;;;;;;-2.00;99.90;;;;;;4905573;29;19927;-70
2023/01/23 00:38:03;;;;;;;;;;;-1.90;99.90;;;;;;4919731;29;19949;-71
2023/01/23 00:40:33;;;;;;;;;;;-1.90;99.90;;;;;;4904144;29;20022;-70
2023/01/23 00:43:05;;;;;;;;;;;-1.80;99.90;;;;;;4923406;29;19927;-70
2023/01/23 00:45:36;;;;;;;;;;;-1.80;99.90;;;;;;4920616;29;19929;-71
2023/01/23 00:48:05;;;;;;;;;;;-1.70;99.90;;;;;;4910625;29;19927;-70
2023/01/23 00:50:35;;;;;;;;;;;-1.70;99.90;;;;;;4909320;29;19934;-70
2023/01/23 00:53:05;;;;;;;;;;;-1.60;99.90;;;;;;4921371;29;19931;-71
2023/01/23 00:55:34;;;;;;;;;;;-1.60;99.90;;;;;;4907384;29;20013;-71
2023/01/23 00:58:03;;;;;;;;;;;-1.60;99.90;;;;;;4919008;29;19931;-70
2023/01/23 01:00:33;;;;;;;;;;;-1.50;99.90;;;;;;4924855;29;19927;-71
2023/01/23 01:03:03;;;;;;;;;;;-1.50;99.90;;;;;;4923704;29;19927;-70
2023/01/23 01:05:32;;;;;;;;;;;-1.50;99.90;;;;;;4907568;29;19934;-70
2023/01/23 01:08:03;;;;;;;;;;;-1.40;99.90;;;;;;4910835;29;20025;-70
2023/01/23 01:10:32;;;;;;;;;;;-1.40;99.90;;;;;;4923260;29;20018;-71
2023/01/23 01:13:09;;;;;;;;;;;-1.50;99.90;;;;;;4901596;29;20313;-71
2023/01/23 01:15:39;;;;;;;;;;;-1.50;99.90;;;;;;4920732;29;19927;-70
2023/01/23 01:18:10;;;;;;;;;;;-1.40;99.90;;;;;;4921563;29;19934;-70
2023/01/23 01:20:40;;;;;;;;;;;-1.40;99.90;;;;;;4910033;29;20275;-73
2023/01/23 01:23:09;;;;;;;;;;;-1.40;99.90;;;;;;4923204;29;20593;-70
2023/01/23 01:25:39;;;;;;;;;;;-1.40;99.90;;;;;;4924461;29;19950;-72
2023/01/23 01:28:08;;;;;;;;;;;-1.40;99.90;;;;;;4930962;29;19927;-70
2023/01/23 01:30:42;;;;;;;;;;;-1.40;99.90;;;;;;4923406;29;19984;-70
2023/01/23 01:33:11;;;;;;;;;;;-1.40;99.90;;;;;;4917267;29;19979;-70
2023/01/23 01:35:41;;;;;;;;;;;-1.40;99.90;;;;;;4919943;29;20021;-70
2023/01/23 01:38:10;;;;;;;;;;;-1.40;99.90;;;;;;4917593;29;19931;-70
2023/01/23 01:40:39;;;;;;;;;;;-1.40;99.90;;;;;;4907652;29;19950;-70
2023/01/23 01:43:16;;;;;;;;;;;-1.30;99.90;;;;;;4921365;29;19987;-71
2023/01/23 01:46:04;;;;;;;;;;;-1.40;99.90;;;;;;4924206;29;19927;-71
2023/01/23 01:48:52;;;;;;;;;;;-1.40;99.90;;;;;;4922725;29;19989;-71
2023/01/23 01:51:50;;;;;;;;;;;-1.40;99.90;;;;;;4907188;29;19933;-71
2023/01/23 01:54:36;;;;;;;;;;;-1.40;99.90;;;;;;4913274;29;19935;-71
2023/01/23 01:57:14;;;;;;;;;;;-1.40;99.90;;;;;;4918095;29;19931;-70
2023/01/23 01:59:50;;;;;;;;;;;-1.40;99.90;;;;;;4919424;29;19927;-70
2023/01/23 02:02:50;;;;;;;;;;;-1.40;99.90;;;;;;4924239;29;19931;-72
2023/01/23 02:05:40;;;;;;;;;;;-1.40;99.90;;;;;;4924317;29;19959;-70
2023/01/23 02:08:18;;;;;;;;;;;-1.40;99.90;;;;;;4897589;29;19928;-70
2023/01/23 02:10:47;;;;;;;;;;;-1.40;99.90;;;;;;4922404;29;19938;-72
2023/01/23 02:13:19;;;;;;;;;;;-1.40;99.90;;;;;;4913414;29;19934;-70
2023/01/23 02:15:50;;;;;;;;;;;-1.40;99.90;;;;;;4907980;29;19927;-72
2023/01/23 02:18:20;;;;;;;;;;;-1.40;99.90;;;;;;4890828;29;20021;-70
2023/01/23 02:20:50;;;;;;;;;;;-1.40;99.90;;;;;;4901693;29;20018;-70
2023/01/23 02:23:42;;;;;;;;;;;-1.40;99.90;;;;;;4906284;29;19962;-70
2023/01/23 02:26:18;;;;;;;;;;;-1.40;99.90;;;;;;4920620;29;20414;-71
2023/01/23 02:28:54;;;;;;;;;;;-1.50;99.90;;;;;;4922422;29;20029;-70
2023/01/23 02:31:26;;;;;;;;;;;-1.40;99.90;;;;;;4889487;29;20399;-70
2023/01/23 02:33:57;;;;;;;;;;;-1.40;99.90;;;;;;4898805;29;20343;-71
2023/01/23 02:36:31;;;;;;;;;;;-1.40;99.90;;;;;;4905617;29;19927;-70
2023/01/23 02:39:13;;;;;;;;;;;-1.40;99.90;;;;;;4905338;29;20148;-71
2023/01/23 02:41:49;;;;;;;;;;;-1.40;99.90;;;;;;4888492;29;19934;-70
2023/01/23 02:44:25;;;;;;;;;;;-1.40;99.90;;;;;;4923279;29;19978;-71
2023/01/23 02:47:00;;;;;;;;;;;-1.40;99.90;;;;;;4902637;29;19935;-70
2023/01/23 02:49:30;;;;;;;;;;;-1.30;99.90;;;;;;4906765;29;19928;-71
2023/01/23 02:52:04;;;;;;;;;;;-1.30;99.90;;;;;;4903140;29;20017;-71
2023/01/23 02:54:36;;;;;;;;;;;-1.30;99.90;;;;;;4917027;29;19931;-70
2023/01/23 02:57:05;;;;;;;;;;;-1.30;99.90;;;;;;4908483;29;19955;-69
2023/01/23 03:02:30;;;;;;;;;;;-1.40;99.90;;;;;;4917577;29;19926;-70
2023/01/23 03:05:02;;;;;;;;;;;-1.50;99.90;;;;;;4921981;29;19939;-70
2023/01/23 03:07:34;;;;;;;;;;;-1.50;99.90;;;;;;4903498;29;19965;-71
2023/01/23 03:10:10;;;;;;;;;;;-1.50;99.90;;;;;;4918824;29;19927;-71
2023/01/23 03:12:44;;;;;;;;;;;-1.50;99.90;;;;;;4922759;29;20408;-72
2023/01/23 03:15:16;;;;;;;;;;;-1.50;99.90;;;;;;4921378;29;20321;-70
2023/01/23 03:17:50;;;;;;;;;;;-1.60;99.90;;;;;;4899882;29;19982;-70
2023/01/23 03:20:19;;;;;;;;;;;-1.50;99.90;;;;;;4900894;29;19926;-71
2023/01/23 03:22:47;;;;;;;;;;;-1.60;99.90;;;;;;4917880;29;19931;-71
2023/01/23 03:25:16;;;;;;;;;;;-1.50;99.90;;;;;;4922765;29;20398;-71
2023/01/23 03:27:46;;;;;;;;;;;-1.60;99.90;;;;;;4907856;29;19977;-70
2023/01/23 03:30:20;;;;;;;;;;;-1.50;99.90;;;;;;4898489;29;20022;-70
2023/01/23 03:32:50;;;;;;;;;;;-1.60;99.90;;;;;;4922266;29;20401;-71
2023/01/23 03:35:21;;;;;;;;;;;-1.50;99.90;;;;;;4904217;29;19928;-72
2023/01/23 03:37:53;;;;;;;;;;;-1.50;99.90;;;;;;4901947;29;19989;-70
2023/01/23 03:43:15;;;;;;;;;;;-1.50;99.90;;;;;;4923160;29;19927;-70
2023/01/23 03:45:50;;;;;;;;;;;-1.50;99.90;;;;;;4925596;29;19927;-71
2023/01/23 03:48:18;;;;;;;;;;;-1.60;99.90;;;;;;4921525;29;20458;-72
2023/01/23 03:50:48;;;;;;;;;;;-1.60;99.90;;;;;;4907419;29;19927;-71
2023/01/23 03:53:20;;;;;;;;;;;-1.70;99.90;;;;;;4908766;29;20091;-70
2023/01/23 03:55:50;;;;;;;;;;;-1.70;99.90;;;;;;4921081;29;20354;-70
2023/01/23 03:58:20;;;;;;;;;;;-1.70;99.90;;;;;;4909668;29;19933;-72
2023/01/23 04:00:49;;;;;;;;;;;-1.70;99.90;;;;;;4916108;29;19927;-70
2023/01/23 04:03:22;;;;;;;;;;;-1.70;99.90;;;;;;4922694;29;19979;-70
2023/01/23 04:05:57;;;;;;;;;;;-1.70;99.90;;;;;;4923071;29;19927;-70
2023/01/23 04:08:28;;;;;;;;;;;-1.60;99.90;;;;;;4906026;29;20314;-71
2023/01/23 04:11:02;;;;;;;;;;;-1.60;99.90;;;;;;4908084;29;20085;-71
2023/01/23 04:13:31;;;;;;;;;;;-1.60;99.90;;;;;;4928701;29;20025;-71
2023/01/23 04:15:59;;;;;;;;;;;-1.60;99.90;;;;;;4911357;29;20024;-71
2023/01/23 04:18:28;;;;;;;;;;;-1.60;99.90;;;;;;4927699;29;20375;-71
2023/01/23 04:21:05;;;;;;;;;;;-1.70;99.90;;;;;;4894826;29;19927;-71
2023/01/23 04:23:35;;;;;;;;;;;-1.70;99.90;;;;;;4908914;29;19935;-70
2023/01/23 04:26:04;;;;;;;;;;;-1.70;99.90;;;;;;4891549;29;19927;-70
2023/01/23 04:28:34;;;;;;;;;;;-1.80;99.90;;;;;;4904419;29;19935;-74
2023/01/23 04:31:12;;;;;;;;;;;-1.80;99.90;;;;;;4919603;29;19927;-71
2023/01/23 04:33:40;;;;;;;;;;;-1.90;99.90;;;;;;4925041;29;19927;-72
2023/01/23 04:36:09;;;;;;;;;;;-1.90;99.90;;;;;;4923770;29;20399;-70
2023/01/23 04:38:37;;;;;;;;;;;-2.00;99.90;;;;;;4924769;28;19931;-70
2023/01/23 04:41:21;;;;;;;;;;;-2.00;99.90;;;;;;4914752;29;20457;-71
2023/01/23 04:44:18;;;;;;;;;;;-2.10;99.90;;;;;;4922306;29;19990;-71
2023/01/23 04:46:55;;;;;;;;;;;-2.20;99.90;;;;;;4920032;29;20466;-71
2023/01/23 04:49:25;;;;;;;;;;;-2.30;99.90;;;;;;4906031;29;19930;-70
2023/01/23 04:51:54;;;;;;;;;;;-2.30;99.90;;;;;;4909679;29;19931;-70
2023/01/23 04:54:24;;;;;;;;;;;-2.40;99.90;;;;;;4903463;29;19927;-70
2023/01/23 04:56:54;;;;;;;;;;;-2.40;99.90;;;;;;4901673;29;20030;-71
2023/01/23 04:59:26;;;;;;;;;;;-2.40;99.90;;;;;;4904117;29;19983;-70
2023/01/23 05:02:01;;;;;;;;;;;-2.40;99.90;;;;;;4919873;29;19927;-72
2023/01/23 05:04:38;;;;;;;;;;;-2.30;99.90;;;;;;4900069;29;20340;-71
2023/01/23 05:07:13;;;;;;;;;;;-2.30;99.90;;;;;;4925225;29;19987;-72
2023/01/23 05:09:54;;;;;;;;;;;-2.20;99.90;;;;;;4908196;29;20084;-70
2023/01/23 05:12:24;;;;;;;;;;;-2.20;99.90;;;;;;4917105;29;19937;-71
2023/01/23 05:14:53;;;;;;;;;;;-2.10;99.90;;;;;;4917472;29;19931;-71
2023/01/23 05:17:22;;;;;;;;;;;-2.10;99.90;;;;;;4914706;29;19931;-71
2023/01/23 05:19:53;;;;;;;;;;;-2.00;99.90;;;;;;4884029;29;19983;-72
2023/01/23 05:22:22;;;;;;;;;;;-1.90;99.90;;;;;;4926771;29;20033;-72
2023/01/23 05:24:53;;;;;;;;;;;-1.90;99.90;;;;;;4937356;29;20013;-70
2023/01/23 05:27:28;;;;;;;;;;;-1.80;99.90;;;;;;4904892;29;19941;-71
2023/01/23 05:30:00;;;;;;;;;;;-1.80;99.90;;;;;;4924906;29;19931;-71
2023/01/23 05:32:33;;;;;;;;;;;-1.80;99.90;;;;;;4925288;29;19955;-71
2023/01/23 05:35:14;;;;;;;;;;;-1.80;99.90;;;;;;4912747;29;19979;-71
2023/01/23 05:40:35;;;;;;;;;;;-1.80;99.90;;;;;;4922133;29;19935;-71
2023/01/23 05:43:14;;;;;;;;;;;-1.80;99.90;;;;;;4917532;29;20379;-71
2023/01/23 05:45:48;;;;;;;;;;;-1.80;99.90;;;;;;4922073;29;20379;-70
2023/01/23 05:48:29;;;;;;;;;;;-1.50;99.90;;;;;;4913708;29;19974;-70
2023/01/23 05:51:01;;;;;;;;;;;-1.40;99.90;;;;;;4895162;29;19927;-70
2023/01/23 05:53:30;;;;;;;;;;;-1.40;99.90;;;;;;4931748;29;20385;-71
2023/01/23 05:56:06;;;;;;;;;;;-1.40;99.90;;;;;;4913563;29;20061;-71
2023/01/23 05:58:40;;;;;;;;;;;-1.50;99.90;;;;;;4912733;29;19962;-71
2023/01/23 06:01:19;;;;;;;;;;;-1.50;99.90;;;;;;4929740;29;20327;-70
2023/01/23 06:04:08;;;;;;;;;;;-1.60;99.90;;;;;;4909220;29;19930;-71
2023/01/23 06:06:51;;;;;;;;;;;-1.60;99.90;;;;;;4905552;29;19930;-70
2023/01/23 06:09:25;;;;;;;;;;;-1.60;99.90;;;;;;4922681;29;20442;-70
2023/01/23 06:11:56;;;;;;;;;;;-1.60;99.90;;;;;;4920760;29;19927;-71
2023/01/23 06:14:23;;;;;;;;;;;-1.60;99.90;;;;;;4905135;29;19992;-71
2023/01/23 06:16:52;;;;;;;;;;;-1.60;99.90;;;;;;4903954;29;20018;-70
2023/01/23 06:19:21;;;;;;;;;;;-1.60;99.90;;;;;;4912951;29;19978;-70
2023/01/23 06:22:00;;;;;;;;;;;-1.60;99.90;;;;;;4911174;29;19935;-70
2023/01/23 06:24:39;;;;;;;;;;;-1.60;99.90;;;;;;4925142;29;20311;-70
2023/01/23 06:27:12;;;;;;;;;;;-1.50;99.90;;;;;;4910278;29;19966;-71
2023/01/23 06:29:43;;;;;;;;;;;-1.50;99.90;;;;;;4910824;29;19969;-71
2023/01/23 06:32:10;;;;;;;;;;;-1.50;99.90;;;;;;4923921;28;19927;-71
2023/01/23 06:34:42;;;;;;;;;;;-1.50;99.90;;;;;;4922965;29;19926;-71
2023/01/23 06:37:12;;;;;;;;;;;-1.50;99.90;;;;;;4898056;29;19927;-71
2023/01/23 06:39:43;;;;;;;;;;;-1.50;99.90;;;;;;4913650;29;19978;-71
2023/01/23 06:42:12;;;;;;;;;;;-1.40;99.90;;;;;;4920859;29;19943;-70
2023/01/23 06:44:45;;;;;;;;;;;-1.40;99.90;;;;;;4917069;29;19930;-70
2023/01/23 06:47:15;;;;;;;;;;;-1.40;99.90;;;;;;4916517;28;20390;-70
2023/01/23 06:49:45;;;;;;;;;;;-1.40;99.90;;;;;;4915338;29;19955;-72
2023/01/23 06:52:15;;;;;;;;;;;-1.40;99.90;;;;;;4892945;29;19935;-70
2023/01/23 06:54:46;;;;;;;;;;;-1.40;99.90;;;;;;4905116;29;19970;-70
2023/01/23 06:57:16;;;;;;;;;;;-1.40;99.90;;;;;;4906259;29;19954;-71
2023/01/23 06:59:49;;;;;;;;;;;-1.40;99.90;;;;;;4929435;29;19927;-71
2023/01/23 07:02:19;;;;;;;;;;;-1.40;99.90;;;;;;4925160;29;19933;-71
2023/01/23 07:04:50;;;;;;;;;;;-1.40;99.90;;;;;;4906023;29;19934;-71
2023/01/23 07:07:19;;;;;;;;;;;-1.40;99.90;;;;;;4905683;29;20386;-71
2023/01/23 07:09:49;;;;;;;;;;;-1.30;99.90;;;;;;4904865;29;19956;-71
2023/01/23 07:12:25;;;;;;;;;;;-1.30;99.90;;;;;;4932483;29;19931;-70
2023/01/23 07:15:00;;;;;;;;;;;-1.30;99.90;;;;;;4923339;29;20065;-71
2023/01/23 07:17:37;;;;;;;;;;;-1.30;99.90;;;;;;4923609;29;19933;-71
2023/01/23 07:20:06;;;;;;;;;;;-1.30;99.90;;;;;;4930934;29;20030;-71
2023/01/23 07:22:40;;;;;;;;;;;-1.30;99.90;;;;;;4921286;29;19926;-71
2023/01/23 07:25:10;;;;;;;;;;;-1.30;99.90;;;;;;4927046;29;19931;-72
2023/01/23 07:27:40;;;;;;;;;;;-1.30;99.90;;;;;;4915481;29;20551;-71
2023/01/23 07:30:09;;;;;;;;;;;-1.20;99.90;;;;;;4924520;29;19931;-72
2023/01/23 07:32:43;;;;;;;;;;;-1.20;99.90;;;;;;4933252;29;19983;-71
2023/01/23 07:35:12;;;;;;;;;;;-1.20;99.90;;;;;;4907858;29;19931;-70
2023/01/23 07:37:42;;;;;;;;;;;-1.20;99.90;;;;;;4924154;29;19943;-70
2023/01/23 07:40:10;;;;;;;;;;;-1.20;99.90;;;;;;4924020;29;20338;-73
2023/01/23 07:42:40;;;;;;;;;;;-1.20;99.90;;;;;;4923731;29;20398;-70
2023/01/23 07:45:11;;;;;;;;;;;-1.20;99.90;;;;;;4920140;29;19927;-71
2023/01/23 07:47:42;;;;;;;;;;;-1.10;99.90;;;;;;4917619;29;19942;-73
2023/01/23 07:50:13;;;;;;;;;;;-1.10;99.90;;;;;;4921219;29;19931;-71
2023/01/23 07:52:42;;;;;;;;;;;-1.00;99.90;;;;;;4928046;29;20053;-71
2023/01/23 07:55:11;;;;;;;;;;;-1.00;99.90;;;;;;4923299;29;20328;-71
2023/01/23 07:57:42;;;;;;;;;;;-1.00;99.90;;;;;;4925520;29;19979;-71
2023/01/23 08:00:11;;;;;;;;;;;-1.00;99.90;;;;;;4910222;29;19927;-70
2023/01/23 08:02:41;;;;;;;;;;;-0.90;99.90;;;;;;4921317;29;19955;-71
2023/01/23 08:05:10;;;;;;;;;;;-0.90;99.90;;;;;;4910658;29;20026;-72
2023/01/23 08:07:39;;;;;;;;;;;-0.90;99.90;;;;;;4918904;29;19927;-72
2023/01/23 08:10:08;;;;;;;;;;;-0.80;99.90;;;;;;4908138;29;20033;-71
2023/01/23 08:12:37;;;;;;;;;;;-0.80;99.90;;;;;;4894696;29;19966;-72
2023/01/23 08:15:07;;;;;;;;;;;-0.80;99.90;;;;;;4906492;29;19934;-71
2023/01/23 08:17:36;;;;;;;;;;;-0.80;99.90;;;;;;4929263;29;20390;-71
2023/01/23 08:20:09;;;;;;;;;;;-0.70;99.90;;;;;;4905093;29;19954;-71
2023/01/23 08:22:39;;;;;;;;;;;-0.70;99.90;;;;;;4925070;29;19937;-71
2023/01/23 08:25:09;;;;;;;;;;;-0.70;99.90;;;;;;4914263;29;19970;-71
2023/01/23 08:27:44;;;;;;;;;;;-0.70;99.90;;;;;;4923875;29;19927;-71
2023/01/23 08:30:13;;;;;;;;;;;-0.60;99.90;;;;;;4910859;29;20414;-71
2023/01/23 08:32:46;;;;;;;;;;;-0.60;99.90;;;;;;4904940;29;19942;-71
2023/01/23 08:35:15;;;;;;;;;;;-0.60;99.90;;;;;;4928151;29;19990;-71
2023/01/23 08:37:46;;;;;;;;;;;-0.50;99.90;;;;;;4925020;29;19933;-72
2023/01/23 08:40:19;;;;;;;;;;;-0.50;99.90;;;;;;4929093;29;19934;-71
2023/01/23 08:42:48;;;;;;;;;;;-0.40;99.90;;;;;;4928255;29;19927;-71
2023/01/23 08:45:21;;;;;;;;;;;-0.40;99.90;;;;;;4934255;29;20413;-71
2023/01/23 08:47:51;;;;;;;;;;;-0.30;99.90;;;;;;4914895;29;20390;-71
2023/01/23 08:50:21;;;;;;;;;;;-0.30;99.90;;;;;;4906122;29;20057;-71
2023/01/23 08:52:51;;;;;;;;;;;-0.30;99.90;;;;;;4897700;29;19931;-71
2023/01/23 08:55:23;;;;;;;;;;;-0.20;99.90;;;;;;4911245;29;19983;-71
2023/01/23 08:57:57;;;;;;;;;;;-0.20;99.90;;;;;;4914678;29;19931;-71
2023/01/23 09:00:29;;;;;;;;;;;-0.20;99.90;;;;;;4926277;29;19931;-72
2023/01/23 09:03:02;;;;;;;;;;;-0.20;99.90;;;;;;4915414;29;20398;-71
2023/01/23 09:05:31;;;;;;;;;;;-0.10;99.90;;;;;;4928382;29;19970;-71
2023/01/23 09:08:01;;;;;;;;;;;0.00;99.90;;;;;;4908489;29;19927;-71
2023/01/23 09:10:33;;;;;;;;;;;0.10;99.90;;;;;;4911107;29;20484;-71
2023/01/23 09:13:05;;;;;;;;;;;0.10;99.90;;;;;;4914062;29;19949;-71
2023/01/23 09:15:37;;;;;;;;;;;0.10;99.90;;;;;;4916025;29;19930;-71
2023/01/23 09:18:06;;;;;;;;;;;0.10;99.90;;;;;;4912112;29;19970;-71
2023/01/23 09:20:36;;;;;;;;;;;0.00;99.90;;;;;;4909615;29;19963;-71
2023/01/23 09:23:07;;;;;;;;;;;0.10;99.90;;;;;;4912216;29;20021;-72
2023/01/23 09:25:37;;;;;;;;;;;0.00;99.90;;;;;;4914750;29;20025;-71
2023/01/23 09:28:06;;;;;;;;;;;-0.10;99.90;;;;;;4927990;29;19927;-72
2023/01/23 09:30:35;;;;;;;;;;;0.00;99.90;;;;;;4914007;29;19949;-71
2023/01/23 09:33:05;;;;;;;;;;;-0.10;99.90;;;;;;4925202;29;19934;-71
2023/01/23 09:35:34;;;;;;;;;;;-0.10;99.90;;;;;;4909463;29;19927;-71
2023/01/23 09:38:06;;;;;;;;;;;0.00;99.90;;;;;;4898027;29;19931;-71
2023/01/23 09:40:37;;;;;;;;;;;0.10;99.90;;;;;;4928699;29;19934;-70
2023/01/23 09:43:24;;;;;;;;;;;0.10;99.90;;;;;;4915626;29;20409;-70
2023/01/23 09:46:03;;;;;;;;;;;0.10;99.90;;;;;;4930153;29;19927;-73
2023/01/23 09:48:43;;;;;;;;;;;0.20;99.90;;;;;;4932101;29;19933;-71
2023/01/23 09:51:24;;;;;;;;;;;0.20;99.90;;;;;;4910748;29;19934;-70
2023/01/23 09:53:58;;;;;;;;;;;0.20;99.90;;;;;;4915292;29;19938;-72
2023/01/23 09:56:25;;;;;;;;;;;0.30;99.90;;;;;;4913281;29;19945;-71
2023/01/23 09:58:56;;;;;;;;;;;0.30;99.90;;;;;;4909358;29;19935;-71
2023/01/23 10:01:31;;;;;;;;;;;0.40;99.90;;;;;;4927234;29;19927;-70
2023/01/23 10:04:03;;;;;;;;;;;0.40;99.90;;;;;;4923786;29;19934;-71
2023/01/23 10:06:55;;;;;;;;;;;0.40;99.90;;;;;;4904527;29;19927;-71
2023/01/23 10:09:42;;;;;;;;;;;0.50;99.90;;;;;;4922622;29;19931;-71
2023/01/23 10:12:20;;;;;;;;;;;0.60;99.90;;;;;;4926197;29;19966;-71
2023/01/23 10:15:06;;;;;;;;;;;0.70;99.90;;;;;;4924092;29;20003;-71
2023/01/23 10:17:38;;;;;;;;;;;0.70;99.90;;;;;;4919316;29;19987;-72
2023/01/23 10:20:33;;;;;;;;;;;0.70;99.90;;;;;;4928404;29;19927;-71
2023/01/23 10:23:32;;;;;;;;;;;0.70;99.90;;;;;;4917285;29;19931;-71
2023/01/23 10:26:08;;;;;;;;;;;0.70;99.90;;;;;;4922949;29;20397;-73
2023/01/23 10:28:37;;;;;;;;;;;0.70;99.90;;;;;;4924231;29;19949;-71
2023/01/23 10:31:07;;;;;;;;;;;0.70;99.90;;;;;;4906797;29;20410;-70
2023/01/23 10:33:43;;;;;;;;;;;0.70;99.90;;;;;;4922900;29;19950;-71
2023/01/23 10:36:21;;;;;;;;;;;0.70;99.90;;;;;;4920901;29;19931;-71
2023/01/23 10:39:00;;;;;;;;;;;0.70;99.90;;;;;;4920884;29;20434;-70
2023/01/23 10:41:32;;;;;;;;;;;0.80;99.90;;;;;;4898522;29;19935;-69
2023/01/23 10:44:11;;;;;;;;;;;0.70;99.90;;;;;;4924986;29;19927;-70
2023/01/23 10:46:44;;;;;;;;;;;0.70;99.90;;;;;;4926042;29;19938;-70
2023/01/23 10:49:25;;;;;;;;;;;0.70;99.90;;;;;;4928118;29;19933;-71
2023/01/23 10:51:51;;;;;;;;;;;0.70;99.90;;;;;;4924921;29;19927;-70
2023/01/23 10:54:19;;;;;;;;;;;0.80;99.90;;;;;;4925122;29;19927;-71
2023/01/23 10:56:54;;;;;;;;;;;0.90;99.90;;;;;;4926347;29;19935;-70
2023/01/23 10:59:32;;;;;;;;;;;0.90;99.90;;;;;;4909848;29;19931;-71
2023/01/23 11:02:12;;;;;;;;;;;0.90;99.90;;;;;;4923870;29;19975;-70
2023/01/23 11:04:40;;;;;;;;;;;0.90;99.90;;;;;;4927545;29;20346;-71
2023/01/23 11:07:31;;;;;;;;;;;0.90;99.90;;;;;;4920853;29;20391;-70
2023/01/23 11:10:06;;;;;;;;;;;0.90;99.90;;;;;;4921143;29;19987;-71
2023/01/23 11:12:48;;;;;;;;;;;0.90;99.90;;;;;;4931167;29;19987;-71
2023/01/23 11:15:20;;;;;;;;;;;0.90;99.90;;;;;;4927521;29;19931;-71
2023/01/23 11:17:53;;;;;;;;;;;0.90;99.90;;;;;;4929271;29;19978;-71
2023/01/23 11:20:38;;;;;;;;;;;1.00;99.90;;;;;;4932500;29;20398;-71
2023/01/23 11:23:09;;;;;;;;;;;1.00;99.90;;;;;;4930656;29;20450;-71
2023/01/23 11:25:42;;;;;;;;;;;1.00;99.90;;;;;;4907678;29;19926;-71
2023/01/23 11:28:22;;;;;;;;;;;1.00;99.90;;;;;;4928522;29;19927;-71
2023/01/23 11:31:00;;;;;;;;;;;1.00;99.90;;;;;;4926189;29;19927;-71
2023/01/23 11:33:35;;;;;;;;;;;0.90;99.90;;;;;;4931390;29;19930;-71
2023/01/23 11:36:12;;;;;;;;;;;0.90;99.90;;;;;;4916837;29;20465;-71
2023/01/23 11:38:46;;;;;;;;;;;0.90;99.90;;;;;;4923475;29;19987;-71
2023/01/23 11:41:19;;;;;;;;;;;0.90;99.90;;;;;;4928449;29;19927;-71
2023/01/23 11:43:51;;;;;;;;;;;0.90;99.90;;;;;;4927382;29;19928;-72
2023/01/23 11:46:36;;;;;;;;;;;0.90;99.90;;;;;;4926743;29;19938;-71
2023/01/23 11:49:11;;;;;;;;;;;0.90;99.90;;;;;;4915109;29;19927;-72
2023/01/23 11:52:01;;;;;;;;;;;0.90;99.90;;;;;;4926241;29;19942;-71
2023/01/23 11:54:46;;;;;;;;;;;0.90;99.90;;;;;;4914266;29;19959;-71
2023/01/23 11:57:30;;;;;;;;;;;0.90;99.90;;;;;;4932569;29;19931;-72
2023/01/23 12:00:15;;;;;;;;;;;1.00;99.90;;;;;;4910496;29;19967;-72
2023/01/23 12:03:03;;;;;;;;;;;1.00;99.90;;;;;;4922870;29;19931;-71
2023/01/23 12:05:38;;;;;;;;;;;0.90;99.90;;;;;;4912778;29;19994;-71
2023/01/23 12:08:25;;;;;;;;;;;0.90;99.90;;;;;;4907203;29;19927;-71
2023/01/23 12:11:00;;;;;;;;;;;0.90;99.90;;;;;;4908122;29;20646;-72
2023/01/23 12:13:26;;;;;;;;;;;0.90;99.90;;;;;;4923676;29;20345;-72
2023/01/23 12:16:10;;;;;;;;;;;1.00;99.90;;;;;;4922940;29;20439;-72
2023/01/23 12:18:41;;;;;;;;;;;0.90;99.90;;;;;;4920206;29;19979;-71
2023/01/23 12:21:26;;;;;;;;;;;1.00;99.90;;;;;;4919453;29;19931;-71
2023/01/23 12:24:05;;;;;;;;;;;1.00;99.90;;;;;;4920503;29;20457;-71
2023/01/23 12:26:40;;;;;;;;;;;1.00;99.90;;;;;;4919817;29;19983;-71
2023/01/23 12:29:28;;;;;;;;;;;1.10;99.90;;;;;;4924198;29;19979;-72
2023/01/23 12:32:18;;;;;;;;;;;1.20;99.90;;;;;;4918304;29;19982;-71
2023/01/23 12:35:15;;;;;;;;;;;1.20;99.90;;;;;;4929461;29;19934;-72
2023/01/23 12:37:48;;;;;;;;;;;1.20;99.90;;;;;;4905937;29;19928;-72
2023/01/23 12:40:58;;;;;;;;;;;1.20;99.90;;;;;;4927385;29;19931;-72
2023/01/23 12:43:33;;;;;;;;;;;1.20;99.90;;;;;;4900926;29;19931;-72
2023/01/23 12:46:04;;;;;;;;;;;1.20;99.90;;;;;;4903352;29;19980;-72
2023/01/23 12:48:44;;;;;;;;;;;1.20;99.90;;;;;;4915733;29;20445;-72
2023/01/23 12:51:17;;;;;;;;;;;1.20;99.90;;;;;;4920395;29;19939;-71
2023/01/23 12:53:51;;;;;;;;;;;1.20;99.90;;;;;;4927061;29;19930;-72
2023/01/23 12:56:30;;;;;;;;;;;1.20;99.90;;;;;;4921396;29;19991;-71
2023/01/23 12:59:13;;;;;;;;;;;1.20;99.90;;;;;;4930338;29;19991;-72
2023/01/23 13:01:44;;;;;;;;;;;1.20;99.90;;;;;;4927986;29;19950;-72
2023/01/23 13:04:19;;;;;;;;;;;1.20;99.90;;;;;;4921197;29;19986;-72
2023/01/23 13:06:57;;;;;;;;;;;1.20;99.90;;;;;;4926266;29;19956;-72
2023/01/23 13:09:46;;;;;;;;;;;1.20;99.90;;;;;;4926517;29;19931;-72
2023/01/23 13:12:20;;;;;;;;;;;1.20;99.90;;;;;;4928707;29;19942;-72
2023/01/23 13:14:52;;;;;;;;;;;1.10;99.90;;;;;;4920772;29;19934;-72
2023/01/23 13:17:35;;;;;;;;;;;1.10;99.90;;;;;;4925571;29;19931;-72
2023/01/23 13:23:21;;;;;;;;;;;1.10;99.90;;;;;;4925550;29;19927;-72
2023/01/23 13:25:48;;;;;;;;;;;1.20;99.90;;;;;;4927366;29;19931;-71
2023/01/23 13:28:25;;;;;;;;;;;1.20;99.90;;;;;;4930169;29;19927;-72
2023/01/23 13:31:01;;;;;;;;;;;1.20;99.90;;;;;;4927738;29;19955;-72
2023/01/23 13:33:27;;;;;;;;;;;1.20;99.90;;;;;;4922482;29;19958;-72
2023/01/23 13:35:55;;;;;;;;;;;1.30;99.90;;;;;;4925327;29;19935;-72
2023/01/23 13:38:21;;;;;;;;;;;1.30;99.90;;;;;;4926109;29;20718;-72
2023/01/23 13:41:03;;;;;;;;;;;1.30;99.90;;;;;;4928919;29;19931;-72
2023/01/23 13:43:41;;;;;;;;;;;1.30;99.90;;;;;;4930693;29;19931;-71
2023/01/23 13:46:25;;;;;;;;;;;1.30;99.90;;;;;;4927168;29;19927;-72
2023/01/23 13:56:37;;;;;;;;;;;1.40;99.90;;;;;;4883687;29;19980;-72
2023/01/23 13:58:20;;;;;;;;;;;1.40;99.90;;;;;;4791093;29;19930;-72
2023/01/23 14:08:05;;;;;;;;;;;1.50;99.90;;;;;;4717935;30;20067;-71
2023/01/23 14:10:18;;;;;;;;;;;1.50;99.90;;;;;;4698720;30;20101;-71
2023/01/23 14:13:05;;;;;;;;;;;1.50;99.90;;;;;;4676694;30;19938;-72
2023/01/23 14:16:09;;;;;;;;;;;1.50;99.90;;;;;;4683391;30;19941;-71
2023/01/23 14:18:54;;;;;;;;;;;1.50;99.90;;;;;;4717197;30;20421;-71
2023/01/23 14:21:41;;;;;;;;;;;1.50;99.90;;;;;;4762487;30;19937;-70
2023/01/23 14:24:46;;;;;;;;;;;1.50;99.90;;;;;;4780549;29;20062;-71
2023/01/23 14:27:32;;;;;;;;;;;1.50;99.90;;;;;;4781670;30;19936;-71
2023/01/23 14:30:03;;;;;;;;;;;1.60;99.90;;;;;;4794979;29;20024;-71
2023/01/23 14:32:31;;;;;;;;;;;1.60;99.90;;;;;;4790335;29;19936;-71
2023/01/23 14:35:00;;;;;;;;;;;1.60;99.90;;;;;;4813224;29;20449;-71
2023/01/23 14:37:31;;;;;;;;;;;1.60;99.90;;;;;;4791813;29;19940;-71
2023/01/23 14:40:01;;;;;;;;;;;1.50;99.90;;;;;;4795850;29;20032;-71
2023/01/23 14:42:31;;;;;;;;;;;1.50;99.90;;;;;;4848603;29;20027;-71
2023/01/23 14:45:00;;;;;;;;;;;1.50;99.90;;;;;;4877818;29;19935;-70
2023/01/23 14:47:36;;;;;;;;;;;1.50;99.90;;;;;;4911727;29;19927;-71
2023/01/23 14:50:25;;;;;;;;;;;1.50;99.90;;;;;;4913481;29;20025;-71
2023/01/23 14:53:02;;;;;;;;;;;1.50;99.90;;;;;;4901198;29;20022;-72
2023/01/23 14:55:38;;;;;;;;;;;1.50;99.90;;;;;;4911092;28;19927;-71
2023/01/23 14:58:14;;;;;;;;;;;1.50;99.90;;;;;;4928093;29;20004;-70
2023/01/23 15:00:48;;;;;;;;;;;1.50;99.90;;;;;;4912668;29;20293;-70
2023/01/23 15:03:34;;;;;;;;;;;1.50;99.90;;;;;;4914691;29;19937;-71
2023/01/23 15:06:08;;;;;;;;;;;1.50;99.90;;;;;;4929878;29;19934;-70
2023/01/23 15:08:37;;;;;;;;;;;1.50;99.90;;;;;;4899288;29;20022;-71
2023/01/23 15:11:10;;;;;;;;;;;1.50;99.90;;;;;;4929815;29;19927;-71
2023/01/23 15:13:44;;;;;;;;;;;1.50;99.90;;;;;;4928480;29;20029;-71
2023/01/23 15:16:27;;;;;;;;;;;1.50;99.90;;;;;;4931757;29;19931;-71
2023/01/23 15:19:18;;;;;;;;;;;1.50;99.90;;;;;;4926607;29;19962;-71
2023/01/23 15:21:47;;;;;;;;;;;1.50;99.90;;;;;;4923697;29;19956;-70
2023/01/23 15:24:25;;;;;;;;;;;1.50;99.90;;;;;;4933495;29;19927;-71
2023/01/23 15:27:00;;;;;;;;;;;1.50;99.90;;;;;;4921793;29;19938;-70